Time;durP1;ratioP1;P1;durP2;ratioP2;P2;SDS_P1;SDS_P2;PMS_P1;PMS_P2;Temp;Humidity;BMP_temperature;BMP_pressure;BME280_temperature;BME280_humidity;BME280_pressure;Samples;Min_cycle;Max_cycle;Signal;HPM_P1;HPM_P2
2021/12/14 00:01:13;;;;;;;;;;;;;;;;;;5074612;28;20036;-81
2021/12/14 00:03:40;;;;;;;15.25;7.70;;;;;;;;;;5074196;28;20308;-81
2021/12/14 00:06:06;;;;;;;18.73;9.23;;;;;;;;;;5089349;28;20071;-80
2021/12/14 00:08:36;;;;;;;17.90;8.95;;;;;;;;;;5072569;28;20032;-80
2021/12/14 00:13:47;;;;;;;17.38;9.15;;;;;;;;;;5089529;28;20028;-81
2021/12/14 00:16:12;;;;;;;16.80;7.78;;;;;;;;;;5087384;28;20037;-81
2021/12/14 00:18:38;;;;;;;19.58;8.75;;;;;;;;;;5072702;28;20043;-80
2021/12/14 00:21:19;;;;;;;20.33;9.93;;;;;;;;;;5056321;28;20033;-80
2021/12/14 00:26:28;;;;;;;23.38;9.27;;;;;;;;;;5072856;28;20005;-81
2021/12/14 00:28:53;;;;;;;22.08;9.85;;;;;;;;;;5072806;28;20079;-81
2021/12/14 00:31:19;;;;;;;21.13;9.20;;;;;;;;;;5073153;28;20105;-81
2021/12/14 00:33:47;;;;;;;21.42;9.48;;;;;;;;;;5090110;28;20124;-80
2021/12/14 00:36:13;;;;;;;19.35;8.73;;;;;;;;;;5074398;28;20110;-80
2021/12/14 00:38:39;;;;;;;23.17;9.93;;;;;;;;;;5104354;28;20048;-80
2021/12/14 00:41:15;;;;;;;19.77;9.52;;;;;;;;;;5086730;28;20413;-80
2021/12/14 00:43:41;;;;;;;19.00;8.73;;;;;;;;;;5073058;28;20032;-81
2021/12/14 00:46:06;;;;;;;19.77;9.98;;;;;;;;;;5089550;28;20028;-81
2021/12/14 00:48:32;;;;;;;19.42;10.13;;;;;;;;;;5073509;28;20020;-81
2021/12/14 00:50:58;;;;;;;19.15;8.30;;;;;;;;;;5072359;28;20422;-81
2021/12/14 00:53:24;;;;;;;14.30;7.53;;;;;;;;;;5089428;28;20043;-80
2021/12/14 00:55:50;;;;;;;14.85;7.50;;;;;;;;;;5055794;28;20028;-81
2021/12/14 00:58:16;;;;;;;15.57;7.30;;;;;;;;;;5089561;28;20040;-79
2021/12/14 01:00:44;;;;;;;13.98;7.20;;;;;;;;;;5089773;28;20032;-81
2021/12/14 01:03:10;;;;;;;17.58;8.02;;;;;;;;;;5073817;28;20032;-82
2021/12/14 01:05:38;;;;;;;13.05;7.53;;;;;;;;;;5089360;28;20348;-81
2021/12/14 01:08:05;;;;;;;15.77;7.57;;;;;;;;;;5088329;28;20178;-81
2021/12/14 01:10:33;;;;;;;16.40;7.53;;;;;;;;;;5089214;28;20121;-81
2021/12/14 01:13:04;;;;;;;13.63;7.20;;;;;;;;;;5089445;28;20332;-81
2021/12/14 01:15:42;;;;;;;;;;;;;;;;;;5074499;28;20467;-81
2021/12/14 01:18:17;;;;;;;14.65;6.78;;;;;;;;;;5074727;28;20314;-81
2021/12/14 01:20:45;;;;;;;16.13;7.45;;;;;;;;;;5092062;28;20029;-81
2021/12/14 01:23:17;;;;;;;17.08;7.65;;;;;;;;;;5092364;28;20372;-81
2021/12/14 01:25:46;;;;;;;14.80;7.47;;;;;;;;;;5091797;28;20036;-81
2021/12/14 01:28:19;;;;;;;14.93;7.72;;;;;;;;;;5092256;28;20028;-81
2021/12/14 01:31:02;;;;;;;18.55;8.90;;;;;;;;;;5092526;28;20032;-81
2021/12/14 01:33:28;;;;;;;19.50;9.25;;;;;;;;;;5090926;28;20508;-81
2021/12/14 01:35:54;;;;;;;22.70;9.85;;;;;;;;;;5092330;28;20036;-81
2021/12/14 01:40:53;;;;;;;24.60;11.48;;;;;;;;;;5075644;28;20033;-81
2021/12/14 01:43:42;;;;;;;25.30;10.65;;;;;;;;;;5059011;28;20044;-81
2021/12/14 01:46:15;;;;;;;25.52;11.85;;;;;;;;;;5070654;28;20033;-81
2021/12/14 01:48:41;;;;;;;23.20;10.85;;;;;;;;;;5091998;28;20123;-81
2021/12/14 01:51:07;;;;;;;23.60;11.18;;;;;;;;;;5058125;28;20028;-81
2021/12/14 01:53:35;;;;;;;24.45;11.48;;;;;;;;;;5058403;28;20464;-80
2021/12/14 01:56:03;;;;;;;22.20;10.57;;;;;;;;;;5078786;28;20029;-80
2021/12/14 01:58:45;;;;;;;25.83;11.95;;;;;;;;;;5082937;28;20036;-80
2021/12/14 02:01:28;;;;;;;21.65;10.60;;;;;;;;;;5077886;28;20028;-81
2021/12/14 02:04:00;;;;;;;23.00;11.68;;;;;;;;;;5075161;28;20064;-81
2021/12/14 02:06:30;;;;;;;28.90;12.00;;;;;;;;;;5076077;28;20031;-81
2021/12/14 02:09:00;;;;;;;25.92;12.15;;;;;;;;;;5074980;28;20036;-81
2021/12/14 02:11:31;;;;;;;24.30;11.35;;;;;;;;;;5074878;28;20409;-81
2021/12/14 02:13:56;;;;;;;28.40;12.15;;;;;;;;;;5074927;28;20032;-81
2021/12/14 02:16:22;;;;;;;28.33;12.10;;;;;;;;;;5082720;28;20035;-81
2021/12/14 02:18:51;;;;;;;33.03;13.85;;;;;;;;;;5084226;28;20035;-81
2021/12/14 02:21:17;;;;;;;32.00;14.13;;;;;;;;;;5074376;28;20365;-81
2021/12/14 02:23:46;;;;;;;33.95;14.15;;;;;;;;;;5057776;28;20039;-81
2021/12/14 02:26:14;;;;;;;33.00;14.18;;;;;;;;;;5074389;28;20090;-81
2021/12/14 02:28:40;;;;;;;29.83;13.38;;;;;;;;;;5073987;28;20020;-81
2021/12/14 02:31:08;;;;;;;26.40;12.15;;;;;;;;;;5074420;28;20027;-81
2021/12/14 02:33:36;;;;;;;31.58;14.27;;;;;;;;;;5074556;28;20032;-81
2021/12/14 02:36:04;;;;;;;27.88;13.02;;;;;;;;;;5075109;28;20056;-80
2021/12/14 02:38:29;;;;;;;31.85;13.90;;;;;;;;;;5077611;28;20428;-80
2021/12/14 02:41:05;;;;;;;33.60;14.20;;;;;;;;;;5081355;28;20028;-81
2021/12/14 02:43:50;;;;;;;34.17;13.73;;;;;;;;;;5075320;28;20028;-81
2021/12/14 02:46:46;;;;;;;30.83;13.27;;;;;;;;;;5074386;28;20059;-81
2021/12/14 02:49:14;;;;;;;30.25;12.98;;;;;;;;;;5061466;28;20438;-81
2021/12/14 02:51:47;;;;;;;32.95;13.43;;;;;;;;;;5074091;28;20075;-81
2021/12/14 02:54:15;;;;;;;34.63;13.13;;;;;;;;;;5074004;28;20024;-80
2021/12/14 02:56:41;;;;;;;31.20;13.32;;;;;;;;;;5075215;28;20025;-80
2021/12/14 02:59:21;;;;;;;32.00;12.80;;;;;;;;;;5075266;28;20123;-81
2021/12/14 03:01:48;;;;;;;32.40;13.55;;;;;;;;;;5082331;28;20094;-82
2021/12/14 03:04:13;;;;;;;35.00;13.45;;;;;;;;;;5057243;28;20093;-81
2021/12/14 03:06:49;;;;;;;33.53;14.25;;;;;;;;;;5073960;28;20123;-81
2021/12/14 03:12:13;;;;;;;33.88;13.40;;;;;;;;;;5074571;28;20429;-81
2021/12/14 03:14:39;;;;;;;30.88;13.18;;;;;;;;;;5073737;28;20039;-81
2021/12/14 03:17:05;;;;;;;30.48;13.35;;;;;;;;;;5073438;28;20071;-80
2021/12/14 03:19:30;;;;;;;29.65;12.65;;;;;;;;;;5073391;28;20059;-81
2021/12/14 03:21:56;;;;;;;40.85;15.73;;;;;;;;;;5075902;28;20028;-80
2021/12/14 03:24:21;;;;;;;71.93;25.25;;;;;;;;;;5074305;28;20060;-81
2021/12/14 03:26:50;;;;;;;58.78;22.17;;;;;;;;;;5073731;28;20028;-81
2021/12/14 03:29:22;;;;;;;42.13;17.63;;;;;;;;;;5040602;28;20032;-80
2021/12/14 03:31:50;;;;;;;40.05;16.35;;;;;;;;;;5074448;28;20024;-80
2021/12/14 03:34:21;;;;;;;36.28;16.65;;;;;;;;;;5074016;28;20394;-80
2021/12/14 03:36:57;;;;;;;34.35;13.43;;;;;;;;;;5073271;28;20043;-80
2021/12/14 03:39:28;;;;;;;25.73;11.85;;;;;;;;;;5074642;28;20174;-80
2021/12/14 03:42:00;;;;;;;26.85;12.35;;;;;;;;;;5057472;28;20367;-80
2021/12/14 03:44:28;;;;;;;28.52;12.05;;;;;;;;;;5077249;28;20040;-80
2021/12/14 03:47:06;;;;;;;26.38;11.02;;;;;;;;;;5056493;28;20063;-80
2021/12/14 03:49:47;;;;;;;31.63;11.77;;;;;;;;;;5077369;28;20088;-82
2021/12/14 03:52:15;;;;;;;25.55;11.32;;;;;;;;;;5091112;28;20047;-80
2021/12/14 03:54:40;;;;;;;23.90;10.95;;;;;;;;;;5081026;28;20119;-80
2021/12/14 03:57:06;;;;;;;24.95;10.88;;;;;;;;;;5074554;28;20459;-80
2021/12/14 03:59:33;;;;;;;23.30;10.93;;;;;;;;;;5073739;28;20031;-80
2021/12/14 04:02:01;;;;;;;28.02;12.52;;;;;;;;;;5074967;28;20039;-81
2021/12/14 04:04:35;;;;;;;26.35;11.75;;;;;;;;;;5073257;28;20020;-80
2021/12/14 04:07:01;;;;;;;24.23;11.20;;;;;;;;;;5075267;28;20052;-81
2021/12/14 04:09:29;;;;;;;26.13;10.68;;;;;;;;;;5056929;28;20043;-80
2021/12/14 04:11:54;;;;;;;32.75;12.40;;;;;;;;;;5073469;28;20036;-81
2021/12/14 04:14:20;;;;;;;27.08;12.77;;;;;;;;;;5072770;28;20036;-80
2021/12/14 04:16:47;;;;;;;26.48;11.23;;;;;;;;;;5055887;28;20020;-79
2021/12/14 04:19:20;;;;;;;26.27;12.07;;;;;;;;;;5074736;28;20039;-80
2021/12/14 04:21:59;;;;;;;29.10;12.90;;;;;;;;;;5074922;28;20036;-80
2021/12/14 04:24:27;;;;;;;28.90;12.57;;;;;;;;;;5073908;28;20033;-80
2021/12/14 04:26:54;;;;;;;30.40;12.48;;;;;;;;;;5079031;28;20044;-80
2021/12/14 04:29:20;;;;;;;36.65;13.15;;;;;;;;;;5073366;28;20041;-79
2021/12/14 04:31:45;;;;;;;26.58;11.90;;;;;;;;;;5074526;28;20032;-79
2021/12/14 04:34:11;;;;;;;27.02;11.70;;;;;;;;;;5075489;28;20448;-80
2021/12/14 04:36:36;;;;;;;31.55;12.38;;;;;;;;;;5073030;28;20024;-81
2021/12/14 04:53:20;;;;;;;24.98;11.90;;;;;;;;;;5077325;28;20089;-80
2021/12/14 04:55:46;;;;;;;25.63;11.73;;;;;;;;;;5093483;28;20024;-81
2021/12/14 04:58:12;;;;;;;26.77;11.32;;;;;;;;;;5076117;28;20029;-81
2021/12/14 05:00:46;;;;;;;27.15;12.07;;;;;;;;;;5042487;28;20036;-81
2021/12/14 05:03:40;;;;;;;22.05;11.23;;;;;;;;;;5076132;28;20032;-81
2021/12/14 05:06:21;;;;;;;26.33;12.65;;;;;;;;;;5075798;28;20045;-80
2021/12/14 05:11:21;;;;;;;31.35;13.55;;;;;;;;;;5076623;28;20078;-79
2021/12/14 05:13:50;;;;;;;40.13;17.13;;;;;;;;;;5076731;28;20032;-79
2021/12/14 05:16:22;;;;;;;26.17;12.27;;;;;;;;;;5075877;28;20032;-79
2021/12/14 05:18:50;;;;;;;34.05;12.70;;;;;;;;;;5077475;28;20028;-79
2021/12/14 05:21:30;;;;;;;35.15;14.30;;;;;;;;;;5076986;28;20494;-79
2021/12/14 05:23:56;;;;;;;35.13;13.80;;;;;;;;;;5076004;28;20031;-79
2021/12/14 05:26:22;;;;;;;31.52;13.95;;;;;;;;;;5042472;28;20027;-79
2021/12/14 05:28:47;;;;;;;35.28;13.93;;;;;;;;;;5075569;28;20376;-79
2021/12/14 05:31:13;;;;;;;33.78;14.68;;;;;;;;;;5078863;28;20123;-85
2021/12/14 05:33:42;;;;;;;30.05;14.85;;;;;;;;;;5075683;28;20098;-85
2021/12/14 05:36:10;;;;;;;30.85;13.82;;;;;;;;;;5058836;28;20063;-86
2021/12/14 05:38:53;;;;;;;29.17;13.23;;;;;;;;;;5074926;28;20033;-85
2021/12/14 05:44:10;;;;;;;40.93;16.83;;;;;;;;;;5064188;28;20048;-85
2021/12/14 05:46:35;;;;;;;44.92;18.25;;;;;;;;;;5078709;28;20033;-86
2021/12/14 05:49:05;;;;;;;45.60;21.50;;;;;;;;;;5071891;28;20036;-86
2021/12/14 05:51:41;;;;;;;48.00;19.35;;;;;;;;;;5066639;28;20037;-83
2021/12/14 06:02:51;;;;;;;64.22;27.45;;;;;;;;;;5055039;28;20095;-78
2021/12/14 06:05:21;;;;;;;80.35;30.55;;;;;;;;;;5050016;28;20543;-77
2021/12/14 06:07:47;;;;;;;85.30;33.55;;;;;;;;;;5051439;28;20029;-78
2021/12/14 06:10:13;;;;;;;77.68;32.45;;;;;;;;;;5017386;28;20060;-78
2021/12/14 06:12:39;;;;;;;83.93;35.22;;;;;;;;;;5034297;28;20037;-78
2021/12/14 06:15:05;;;;;;;71.72;30.85;;;;;;;;;;5054622;28;20033;-77
2021/12/14 06:17:33;;;;;;;102.43;40.40;;;;;;;;;;5037945;28;20021;-78
2021/12/14 06:20:06;;;;;;;96.00;37.00;;;;;;;;;;5058106;28;20029;-78
2021/12/14 06:22:38;;;;;;;96.05;35.40;;;;;;;;;;5015618;28;20029;-77
2021/12/14 06:25:10;;;;;;;93.35;36.47;;;;;;;;;;5019550;28;20033;-76
2021/12/14 06:27:39;;;;;;;83.15;33.83;;;;;;;;;;5036923;28;20048;-77
2021/12/14 06:30:11;;;;;;;77.43;31.38;;;;;;;;;;5020507;28;20029;-76
2021/12/14 06:32:44;;;;;;;65.88;29.92;;;;;;;;;;5037065;28;20033;-78
2021/12/14 06:35:12;;;;;;;71.63;31.83;;;;;;;;;;5021245;28;20033;-78
2021/12/14 06:46:27;;;;;;;84.28;35.58;;;;;;;;;;5130611;22;20139;-78
2021/12/14 06:48:59;;;;;;;80.35;35.72;;;;;;;;;;5034011;28;20131;-77
2021/12/14 06:51:28;;;;;;;81.10;34.67;;;;;;;;;;5052348;28;20114;-79
2021/12/14 06:53:59;;;;;;;80.63;35.85;;;;;;;;;;5037297;28;20024;-78
2021/12/14 06:56:27;;;;;;;87.72;38.45;;;;;;;;;;5047860;28;20064;-76
2021/12/14 06:58:55;;;;;;;85.40;37.78;;;;;;;;;;5053075;28;20024;-79
2021/12/14 07:01:34;;;;;;;66.68;29.45;;;;;;;;;;5052654;28;20500;-77
2021/12/14 07:04:07;;;;;;;65.10;27.90;;;;;;;;;;5053733;28;20333;-78
2021/12/14 07:06:40;;;;;;;65.75;29.27;;;;;;;;;;5052811;28;20452;-78
2021/12/14 07:09:23;;;;;;;74.53;29.98;;;;;;;;;;5052993;28;20464;-77
2021/12/14 07:12:04;;;;;;;69.68;30.42;;;;;;;;;;5013800;28;20033;-78
2021/12/14 07:14:42;;;;;;;82.97;38.75;;;;;;;;;;5033076;28;20042;-77
2021/12/14 07:20:46;;;;;;;69.60;32.58;;;;;;;;;;5033765;28;20040;-77
2021/12/14 07:23:44;;;;;;;80.50;39.80;;;;;;;;;;5033877;28;20453;-78
2021/12/14 07:26:14;;;;;;;70.07;37.63;;;;;;;;;;5038088;28;20032;-78
2021/12/14 07:28:42;;;;;;;64.55;28.42;;;;;;;;;;5025464;28;20083;-76
2021/12/14 07:31:16;;;;;;;53.17;24.63;;;;;;;;;;5034800;28;20090;-79
2021/12/14 07:33:48;;;;;;;53.75;23.40;;;;;;;;;;5054207;28;20028;-77
2021/12/14 07:36:27;;;;;;;49.42;22.15;;;;;;;;;;5053260;28;20440;-76
2021/12/14 07:39:01;;;;;;;66.03;31.13;;;;;;;;;;5046927;28;20106;-76
2021/12/14 07:41:47;;;;;;;71.07;34.85;;;;;;;;;;5032574;28;20033;-77
2021/12/14 07:44:25;;;;;;;44.97;18.38;;;;;;;;;;5064501;22;20136;-81
2021/12/14 07:46:57;;;;;;;45.72;23.73;;;;;;;;;;5042999;28;20110;-80
2021/12/14 07:49:35;;;;;;;47.42;21.38;;;;;;;;;;5006527;28;20521;-78
2021/12/14 07:52:15;;;;;;;51.63;24.92;;;;;;;;;;5049590;28;20037;-81
2021/12/14 08:01:35;;;;;;;59.20;27.98;;;;;;;;;;5064351;22;20070;-81
2021/12/14 08:04:06;;;;;;;49.40;24.17;;;;;;;;;;5025525;28;20034;-82
2021/12/14 08:06:53;;;;;;;49.28;21.20;;;;;;;;;;5004464;28;20066;-81
2021/12/14 08:09:48;;;;;;;48.10;21.63;;;;;;;;;;4996204;28;20037;-80
2021/12/14 08:12:33;;;;;;;44.30;19.73;;;;;;;;;;4994972;28;20141;-80
2021/12/14 08:15:28;;;;;;;41.70;18.63;;;;;;;;;;5007121;28;20048;-81
2021/12/14 08:18:14;;;;;;;42.13;18.70;;;;;;;;;;5004759;28;20045;-82
2021/12/14 08:27:08;;;;;;;48.33;22.95;;;;;;;;;;5144471;22;20067;-81
2021/12/14 08:29:35;;;;;;;45.85;21.15;;;;;;;;;;5053479;28;20033;-82
2021/12/14 08:32:11;;;;;;;38.10;16.30;;;;;;;;;;5037439;28;20366;-79
2021/12/14 08:34:44;;;;;;;40.72;18.55;;;;;;;;;;5038306;28;20113;-78
2021/12/14 08:37:10;;;;;;;42.90;21.55;;;;;;;;;;5037122;28;20329;-79
2021/12/14 08:40:02;;;;;;;51.38;20.67;;;;;;;;;;5037591;28;20278;-78
2021/12/14 08:42:46;;;;;;;36.75;17.70;;;;;;;;;;5030729;28;20476;-79
2021/12/14 08:45:27;;;;;;;41.00;18.05;;;;;;;;;;5036437;28;20064;-78
2021/12/14 08:47:54;;;;;;;56.90;27.52;;;;;;;;;;5019704;28;20036;-78
2021/12/14 08:50:19;;;;;;;44.10;18.92;;;;;;;;;;5051688;28;20025;-79
2021/12/14 08:52:46;;;;;;;38.38;17.65;;;;;;;;;;5050797;28;20082;-79
2021/12/14 08:55:12;;;;;;;40.95;18.25;;;;;;;;;;5050922;28;20037;-80
2021/12/14 08:57:47;;;;;;;47.95;22.25;;;;;;;;;;5050964;28;20060;-80
2021/12/14 09:00:26;;;;;;;42.97;17.98;;;;;;;;;;5050242;28;20036;-79
2021/12/14 09:02:59;;;;;;;44.97;21.33;;;;;;;;;;5033131;28;20059;-79
2021/12/14 09:05:41;;;;;;;38.70;19.48;;;;;;;;;;5041800;28;20488;-79
2021/12/14 09:08:30;;;;;;;42.70;19.05;;;;;;;;;;5019988;28;20118;-80
2021/12/14 09:11:28;;;;;;;53.10;25.23;;;;;;;;;;5025984;28;20046;-81
2021/12/14 09:13:54;;;;;;;45.85;18.00;;;;;;;;;;5019479;28;20033;-79
2021/12/14 09:16:25;;;;;;;45.60;17.70;;;;;;;;;;5054462;28;20087;-80
2021/12/14 09:18:55;;;;;;;40.55;17.45;;;;;;;;;;5201019;22;20033;-81
2021/12/14 09:21:25;;;;;;;41.80;18.00;;;;;;;;;;5016812;28;20081;-79
2021/12/14 09:23:55;;;;;;;48.20;21.50;;;;;;;;;;5017538;28;20041;-78
2021/12/14 09:26:22;;;;;;;53.90;22.33;;;;;;;;;;5001598;28;20033;-81
2021/12/14 09:28:51;;;;;;;46.95;19.33;;;;;;;;;;4984761;28;20269;-79
2021/12/14 09:31:20;;;;;;;43.78;19.95;;;;;;;;;;5034280;28;20049;-79
2021/12/14 09:33:47;;;;;;;44.90;19.77;;;;;;;;;;5017881;28;20041;-80
2021/12/14 09:36:13;;;;;;;49.00;22.27;;;;;;;;;;5035525;28;20032;-80
2021/12/14 09:38:46;;;;;;;47.95;20.35;;;;;;;;;;5018128;28;20029;-80
2021/12/14 09:41:15;;;;;;;146.55;66.45;;;;;;;;;;5019376;28;20179;-79
2021/12/14 09:43:41;;;;;;;57.85;24.45;;;;;;;;;;4987028;28;20361;-79
2021/12/14 09:46:09;;;;;;;63.17;30.58;;;;;;;;;;5018560;28;20120;-78
2021/12/14 09:48:45;;;;;;;84.32;45.20;;;;;;;;;;5016170;28;20034;-80
2021/12/14 09:51:14;;;;;;;79.22;37.13;;;;;;;;;;5015035;28;20407;-80
2021/12/14 09:53:42;;;;;;;66.78;31.55;;;;;;;;;;5032760;28;20037;-80
2021/12/14 09:56:08;;;;;;;44.72;20.90;;;;;;;;;;5038045;22;20058;-80
2021/12/14 09:58:41;;;;;;;46.45;20.30;;;;;;;;;;5026997;28;20033;-82
2021/12/14 10:15:26;;;;;;;47.55;19.98;;;;;;;;;;4944893;28;20073;-79
2021/12/14 10:17:52;;;;;;;45.92;21.13;;;;;;;;;;4971071;28;20481;-79
2021/12/14 10:20:34;;;;;;;52.65;23.50;;;;;;;;;;4970335;28;20458;-80
2021/12/14 10:23:00;;;;;;;45.22;22.75;;;;;;;;;;4970552;28;20117;-80
2021/12/14 10:25:26;;;;;;;73.57;37.78;;;;;;;;;;4954707;28;20135;-78
2021/12/14 10:27:53;;;;;;;86.93;45.53;;;;;;;;;;4971008;28;20117;-80
2021/12/14 10:30:54;;;;;;;54.20;26.77;;;;;;;;;;4971001;28;20545;-80
2021/12/14 10:33:42;;;;;;;51.47;22.85;;;;;;;;;;4974539;28;20465;-79
2021/12/14 10:36:23;;;;;;;45.75;19.90;;;;;;;;;;4958398;28;20480;-80
2021/12/14 10:45:07;;;;;;;47.20;20.77;;;;;;;;;;4973756;28;20085;-80
2021/12/14 10:47:34;;;;;;;43.03;20.38;;;;;;;;;;5022854;28;20111;-78
2021/12/14 10:50:00;;;;;;;36.78;16.35;;;;;;;;;;5015769;28;20091;-79
2021/12/14 10:52:27;;;;;;;46.63;19.10;;;;;;;;;;5032074;28;20045;-79
2021/12/14 11:00:56;;;;;;;44.78;18.88;;;;;;;;;;5031685;28;20053;-79
2021/12/14 11:03:29;;;;;;;50.47;20.73;;;;;;;;;;5000409;28;20476;-79
2021/12/14 11:06:03;;;;;;;50.58;20.38;;;;;;;;;;5035252;28;20037;-80
2021/12/14 11:11:46;;;;;;;44.38;20.23;;;;;;;;;;5032419;28;20029;-78
2021/12/14 11:14:13;;;;;;;49.47;21.60;;;;;;;;;;5031168;28;20033;-80
2021/12/14 11:24:49;;;;;;;41.20;18.90;;;;;;;;;;1482983;26;20060;-79
2021/12/14 11:27:26;;;;;;;37.70;18.15;;;;;;;;;;5053422;28;20047;-80
2021/12/14 11:35:13;;;;;;;41.60;18.23;;;;;;;;;;3271819;26;20049;-78
2021/12/14 11:37:39;;;;;;;40.47;17.45;;;;;;;;;;5052173;28;20040;-79
2021/12/14 11:42:30;;;;;;;50.15;21.88;;;;;;;;;;5038010;22;20041;-78
2021/12/14 11:45:17;;;;;;;40.85;17.75;;;;;;;;;;5042438;28;20115;-79
2021/12/14 11:47:51;;;;;;;40.25;17.85;;;;;;;;;;5026192;28;20457;-80
2021/12/14 11:50:19;;;;;;;49.38;19.63;;;;;;;;;;5012415;28;20113;-79
2021/12/14 11:53:00;;;;;;;44.25;19.90;;;;;;;;;;5011714;28;20038;-80
2021/12/14 11:55:53;;;;;;;41.05;18.15;;;;;;;;;;5011497;28;20032;-79
2021/12/14 12:04:17;;;;;;;40.78;16.30;;;;;;;;;;5274428;22;20084;-79
2021/12/14 12:09:51;;;;;;;43.97;18.58;;;;;;;;;;5030736;28;20519;-80
2021/12/14 12:12:27;;;;;;;49.30;19.92;;;;;;;;;;5031073;28;20045;-79
2021/12/14 12:15:14;;;;;;;41.55;18.10;;;;;;;;;;5030933;28;20038;-78
2021/12/14 12:17:56;;;;;;;39.03;16.92;;;;;;;;;;5015850;28;20037;-78
2021/12/14 12:20:28;;;;;;;39.33;16.83;;;;;;;;;;5014378;28;20084;-80
2021/12/14 12:22:58;;;;;;;40.65;17.67;;;;;;;;;;5014425;28;20042;-79
2021/12/14 12:25:36;;;;;;;44.38;19.65;;;;;;;;;;5032419;28;20065;-79
2021/12/14 12:28:12;;;;;;;36.28;15.63;;;;;;;;;;5032461;28;20032;-79
2021/12/14 12:30:48;;;;;;;36.92;16.70;;;;;;;;;;5032107;28;20068;-77
2021/12/14 12:33:17;;;;;;;44.72;19.38;;;;;;;;;;5032837;28;20450;-78
2021/12/14 12:36:03;;;;;;;49.58;21.00;;;;;;;;;;5033100;28;20076;-79
2021/12/14 12:38:52;;;;;;;54.72;23.02;;;;;;;;;;5038985;22;20428;-73
2021/12/14 12:41:23;;;;;;;63.28;26.17;;;;;;;;;;5053518;28;20035;-73
2021/12/14 12:44:16;;;;;;;43.80;19.52;;;;;;;;;;5052072;28;20133;-74
2021/12/14 12:46:42;;;;;;;47.45;21.85;;;;;;;;;;5053606;28;20025;-73
2021/12/14 12:49:21;;;;;;;52.00;21.38;;;;;;;;;;5053713;28;20036;-72
2021/12/14 12:51:55;;;;;;;49.83;20.92;;;;;;;;;;5052707;28;20078;-75
2021/12/14 12:54:32;;;;;;;85.45;31.38;;;;;;;;;;5051051;28;20025;-74
2021/12/14 12:57:37;;;;;;;61.35;24.83;;;;;;;;;;5051810;28;20634;-74
2021/12/14 13:00:09;;;;;;;44.88;19.83;;;;;;;;;;4973076;28;20034;-73
2021/12/14 13:03:00;;;;;;;43.03;18.55;;;;;;;;;;5026190;28;20061;-74
2021/12/14 13:05:32;;;;;;;61.40;25.35;;;;;;;;;;5025594;28;20041;-74
2021/12/14 13:08:03;;;;;;;56.80;24.48;;;;;;;;;;5031034;28;20032;-73
2021/12/14 13:10:43;;;;;;;48.33;20.15;;;;;;;;;;5029530;28;20037;-75
2021/12/14 13:13:11;;;;;;;52.10;22.23;;;;;;;;;;5031747;28;20040;-74
2021/12/14 13:15:38;;;;;;;53.45;21.92;;;;;;;;;;5033409;28;20296;-73
2021/12/14 13:18:38;;;;;;;56.95;23.77;;;;;;;;;;5033764;28;20021;-73
2021/12/14 13:21:15;;;;;;;41.53;19.27;;;;;;;;;;5033468;28;20025;-73
2021/12/14 13:24:00;;;;;;;45.70;19.98;;;;;;;;;;5033769;28;20119;-73
2021/12/14 13:26:27;;;;;;;42.03;18.40;;;;;;;;;;5035529;28;20030;-74
2021/12/14 13:28:55;;;;;;;48.22;17.67;;;;;;;;;;5034404;28;20028;-75
2021/12/14 13:31:28;;;;;;;50.40;19.58;;;;;;;;;;5035249;28;20032;-75
2021/12/14 13:33:54;;;;;;;47.95;21.58;;;;;;;;;;5035524;28;20032;-74
2021/12/14 13:36:19;;;;;;;48.60;20.75;;;;;;;;;;5035247;28;20025;-74
2021/12/14 13:38:45;;;;;;;51.90;21.13;;;;;;;;;;5035167;28;20049;-75
2021/12/14 13:41:33;;;;;;;57.95;25.92;;;;;;;;;;5036094;28;20021;-75
2021/12/14 13:43:58;;;;;;;101.25;41.03;;;;;;;;;;5019712;28;20033;-75
2021/12/14 13:46:24;;;;;;;53.28;20.77;;;;;;;;;;5036350;28;20043;-75
2021/12/14 13:48:49;;;;;;;44.58;17.27;;;;;;;;;;5034998;28;20360;-75
2021/12/14 13:51:17;;;;;;;48.95;22.30;;;;;;;;;;5036339;28;20033;-75
2021/12/14 13:53:43;;;;;;;52.50;22.73;;;;;;;;;;5035222;28;20095;-75
2021/12/14 13:56:19;;;;;;;56.80;24.48;;;;;;;;;;5036164;28;20411;-75
2021/12/14 13:58:45;;;;;;;52.95;23.27;;;;;;;;;;5018779;28;20033;-75
2021/12/14 14:01:15;;;;;;;61.30;22.75;;;;;;;;;;5018525;28;20029;-74
2021/12/14 14:03:43;;;;;;;63.57;26.20;;;;;;;;;;5036131;28;20349;-74
2021/12/14 14:06:11;;;;;;;69.28;29.95;;;;;;;;;;5034871;28;20268;-76
2021/12/14 14:09:02;;;;;;;61.45;26.25;;;;;;;;;;5018698;28;20061;-74
2021/12/14 14:11:32;;;;;;;88.13;48.33;;;;;;;;;;5034890;28;20029;-75
2021/12/14 14:14:06;;;;;;;80.15;41.85;;;;;;;;;;5034861;28;20029;-75
2021/12/14 14:16:42;;;;;;;141.35;72.82;;;;;;;;;;5036151;28;20470;-75
2021/12/14 14:19:13;;;;;;;221.70;110.00;;;;;;;;;;5034614;28;20041;-75
2021/12/14 14:21:38;;;;;;;152.55;72.47;;;;;;;;;;5035167;28;20099;-75
2021/12/14 14:24:04;;;;;;;123.55;46.22;;;;;;;;;;5034080;28;20378;-76
2021/12/14 14:26:36;;;;;;;188.88;84.93;;;;;;;;;;5034204;28;20036;-75
2021/12/14 14:29:13;;;;;;;75.80;35.72;;;;;;;;;;5034361;28;20037;-75
2021/12/14 14:31:43;;;;;;;78.40;32.75;;;;;;;;;;5018030;28;20033;-75
2021/12/14 14:34:31;;;;;;;66.72;29.50;;;;;;;;;;5034463;28;20368;-75
2021/12/14 14:36:57;;;;;;;58.33;26.00;;;;;;;;;;5034277;28;20453;-75
2021/12/14 14:39:23;;;;;;;63.92;31.55;;;;;;;;;;5034960;28;20393;-74
2021/12/14 14:41:59;;;;;;;66.20;31.00;;;;;;;;;;5034149;28;20030;-75
2021/12/14 14:44:31;;;;;;;73.60;33.45;;;;;;;;;;5035264;28;20026;-75
2021/12/14 14:47:02;;;;;;;85.30;38.85;;;;;;;;;;5034363;28;20029;-76
2021/12/14 14:49:36;;;;;;;70.53;28.92;;;;;;;;;;5017806;28;20086;-76
2021/12/14 14:52:15;;;;;;;62.05;27.80;;;;;;;;;;5038934;28;20068;-76
2021/12/14 14:54:44;;;;;;;73.85;29.73;;;;;;;;;;5017134;28;20468;-75
2021/12/14 14:57:09;;;;;;;75.90;31.02;;;;;;;;;;5001528;28;20080;-76
2021/12/14 14:59:36;;;;;;;109.80;51.78;;;;;;;;;;5035002;28;20033;-75
2021/12/14 15:02:01;;;;;;;68.50;32.60;;;;;;;;;;5033769;28;20368;-75
2021/12/14 15:04:27;;;;;;;112.18;56.95;;;;;;;;;;5017434;28;20037;-76
2021/12/14 15:06:53;;;;;;;69.50;29.80;;;;;;;;;;5017296;28;20080;-76
2021/12/14 15:09:26;;;;;;;71.22;30.75;;;;;;;;;;5017211;28;20075;-75
2021/12/14 15:11:57;;;;;;;66.18;30.40;;;;;;;;;;5001014;28;20554;-76
2021/12/14 15:14:39;;;;;;;79.15;34.42;;;;;;;;;;5017759;28;20032;-75
2021/12/14 15:17:12;;;;;;;74.82;34.42;;;;;;;;;;5033557;28;20034;-76
2021/12/14 15:19:44;;;;;;;69.82;35.17;;;;;;;;;;5017424;28;20060;-74
2021/12/14 15:22:30;;;;;;;75.28;31.55;;;;;;;;;;5034539;28;20029;-76
2021/12/14 15:25:11;;;;;;;72.88;31.60;;;;;;;;;;5034551;28;20111;-74
2021/12/14 15:27:51;;;;;;;79.68;32.13;;;;;;;;;;5017373;28;20433;-74
2021/12/14 15:30:28;;;;;;;84.72;37.35;;;;;;;;;;5033478;28;20033;-74
2021/12/14 15:33:05;;;;;;;69.95;34.15;;;;;;;;;;5033689;28;20033;-74
2021/12/14 15:35:37;;;;;;;70.30;31.05;;;;;;;;;;5033723;28;20388;-74
2021/12/14 15:38:17;;;;;;;80.65;36.65;;;;;;;;;;5032734;28;20025;-75
2021/12/14 15:41:00;;;;;;;78.43;32.92;;;;;;;;;;5033170;28;20030;-76
2021/12/14 15:43:33;;;;;;;75.43;32.45;;;;;;;;;;5017326;28;20033;-75
2021/12/14 15:46:02;;;;;;;81.13;33.28;;;;;;;;;;5000880;28;20037;-74
2021/12/14 15:48:42;;;;;;;70.32;29.38;;;;;;;;;;5032856;28;20021;-75
2021/12/14 15:51:49;;;;;;;92.97;45.85;;;;;;;;;;5033250;28;20037;-75
2021/12/14 15:54:26;;;;;;;81.85;38.33;;;;;;;;;;5037585;28;20060;-75
2021/12/14 15:56:54;;;;;;;71.18;32.00;;;;;;;;;;5033003;28;20029;-74
2021/12/14 15:59:28;;;;;;;69.07;30.45;;;;;;;;;;5033939;28;20069;-74
2021/12/14 16:01:53;;;;;;;66.00;31.05;;;;;;;;;;5032879;28;20059;-74
2021/12/14 16:04:26;;;;;;;64.22;27.67;;;;;;;;;;5034005;28;20120;-74
2021/12/14 16:06:52;;;;;;;65.38;29.45;;;;;;;;;;5016982;28;20026;-75
2021/12/14 16:09:20;;;;;;;65.45;28.35;;;;;;;;;;5016250;28;20507;-75
2021/12/14 16:12:08;;;;;;;55.50;25.08;;;;;;;;;;5033084;28;20037;-76
2021/12/14 16:17:18;;;;;;;83.03;36.42;;;;;;;;;;5032901;28;20040;-75
2021/12/14 16:19:45;;;;;;;74.53;32.75;;;;;;;;;;5032718;28;20424;-75
2021/12/14 16:22:21;;;;;;;76.15;36.08;;;;;;;;;;5016149;28;20030;-74
2021/12/14 16:25:12;;;;;;;74.50;35.80;;;;;;;;;;5032519;28;20037;-74
2021/12/14 16:27:41;;;;;;;111.32;56.80;;;;;;;;;;5033824;28;20416;-74
2021/12/14 16:30:09;;;;;;;103.13;46.40;;;;;;;;;;5033763;28;20457;-73
2021/12/14 16:32:34;;;;;;;116.13;56.25;;;;;;;;;;5033867;28;20045;-74
2021/12/14 16:35:02;;;;;;;91.40;41.50;;;;;;;;;;5032475;28;20029;-74
2021/12/14 16:37:33;;;;;;;74.90;31.90;;;;;;;;;;5032500;28;20025;-74
2021/12/14 16:39:58;;;;;;;78.72;37.40;;;;;;;;;;5032590;28;20100;-74
2021/12/14 16:42:24;;;;;;;79.63;35.55;;;;;;;;;;5033916;28;20449;-74
2021/12/14 16:44:53;;;;;;;85.15;39.42;;;;;;;;;;5032490;28;20052;-74
2021/12/14 16:47:23;;;;;;;84.45;35.30;;;;;;;;;;5017216;28;20441;-74
2021/12/14 16:49:51;;;;;;;89.43;39.35;;;;;;;;;;5020084;28;20025;-74